El Vigia, Venezuela
Current Conditions -  °F | °C
As of 11:00 AM on Thursday 23 Oct 2014 (Local Time) from SVVG Reporting Station
Scattered Clouds Scattered Clouds  
Wind Chill: 33°   Ceiling: Unl
Heat Index: 40°   Visibility: 6mi
Dew Point: 25°   Wind: 0mph
Humidity: 63%   Direction: NA
Pressure: 29.85"   Gusts: NA
Location:  8.63°N, 71.65°W
Report Text: SVVG 231500Z 00000KT 9999 SCT013 33/25 Q1011
Loading
Personal Weather Stations






























Interactive Weather Map
Tropical Storm Tracking
New forecast layout! Learn more

10-Day Weather Forecast

Advertisements
Track Severe Weather on mobile